sensor_id;sensor_type;location;lat;lon;timestamp;P1;durP1;ratioP1;P2;durP2;ratioP2
78004;SDS011;67209;51.698;-0.292;2023-01-31T00:00:06;13.07;;;3.85;;
78004;SDS011;67209;51.698;-0.292;2023-01-31T00:02:32;11.63;;;4.45;;
78004;SDS011;67209;51.698;-0.292;2023-01-31T00:04:59;7.93;;;3.00;;
78004;SDS011;67209;51.698;-0.292;2023-01-31T00:07:25;10.63;;;3.80;;
78004;SDS011;67209;51.698;-0.292;2023-01-31T00:09:51;13.27;;;3.88;;
78004;SDS011;67209;51.698;-0.292;2023-01-31T00:12:17;11.40;;;3.47;;
78004;SDS011;67209;51.698;-0.292;2023-01-31T00:14:42;9.68;;;3.97;;
78004;SDS011;67209;51.698;-0.292;2023-01-31T00:17:08;11.02;;;3.72;;
78004;SDS011;67209;51.698;-0.292;2023-01-31T00:19:34;13.20;;;3.67;;
78004;SDS011;67209;51.698;-0.292;2023-01-31T00:22:00;10.93;;;3.35;;
78004;SDS011;67209;51.698;-0.292;2023-01-31T00:24:27;10.23;;;3.40;;
78004;SDS011;67209;51.698;-0.292;2023-01-31T00:26:53;10.00;;;3.58;;
78004;SDS011;67209;51.698;-0.292;2023-01-31T00:29:23;9.85;;;3.38;;
78004;SDS011;67209;51.698;-0.292;2023-01-31T00:31:50;10.57;;;3.45;;
78004;SDS011;67209;51.698;-0.292;2023-01-31T00:34:16;9.48;;;2.90;;
78004;SDS011;67209;51.698;-0.292;2023-01-31T00:36:42;9.73;;;3.28;;
78004;SDS011;67209;51.698;-0.292;2023-01-31T00:39:08;15.18;;;4.55;;
78004;SDS011;67209;51.698;-0.292;2023-01-31T00:41:35;9.95;;;3.90;;
78004;SDS011;67209;51.698;-0.292;2023-01-31T00:44:02;8.57;;;3.70;;
78004;SDS011;67209;51.698;-0.292;2023-01-31T00:46:28;14.07;;;3.83;;
78004;SDS011;67209;51.698;-0.292;2023-01-31T00:48:55;9.13;;;3.72;;
78004;SDS011;67209;51.698;-0.292;2023-01-31T00:51:21;11.95;;;3.63;;
78004;SDS011;67209;51.698;-0.292;2023-01-31T00:53:47;9.05;;;3.33;;
78004;SDS011;67209;51.698;-0.292;2023-01-31T00:56:15;8.60;;;2.92;;
78004;SDS011;67209;51.698;-0.292;2023-01-31T00:58:41;7.50;;;3.97;;
78004;SDS011;67209;51.698;-0.292;2023-01-31T01:01:11;6.05;;;2.97;;
78004;SDS011;67209;51.698;-0.292;2023-01-31T01:03:38;10.43;;;3.33;;
78004;SDS011;67209;51.698;-0.292;2023-01-31T01:06:05;6.75;;;2.30;;
78004;SDS011;67209;51.698;-0.292;2023-01-31T01:08:31;7.55;;;3.20;;
78004;SDS011;67209;51.698;-0.292;2023-01-31T01:11:03;8.98;;;3.55;;
78004;SDS011;67209;51.698;-0.292;2023-01-31T01:13:29;11.63;;;3.42;;
78004;SDS011;67209;51.698;-0.292;2023-01-31T01:15:55;10.25;;;3.13;;
78004;SDS011;67209;51.698;-0.292;2023-01-31T01:18:21;8.85;;;3.33;;
78004;SDS011;67209;51.698;-0.292;2023-01-31T01:20:47;8.95;;;3.15;;
78004;SDS011;67209;51.698;-0.292;2023-01-31T01:23:13;6.70;;;2.97;;
78004;SDS011;67209;51.698;-0.292;2023-01-31T01:25:42;9.77;;;2.65;;
78004;SDS011;67209;51.698;-0.292;2023-01-31T01:28:08;7.30;;;2.83;;
78004;SDS011;67209;51.698;-0.292;2023-01-31T01:30:36;5.97;;;2.42;;
78004;SDS011;67209;51.698;-0.292;2023-01-31T01:33:02;9.32;;;3.20;;
78004;SDS011;67209;51.698;-0.292;2023-01-31T01:35:28;8.75;;;2.60;;
78004;SDS011;67209;51.698;-0.292;2023-01-31T01:37:55;11.07;;;2.95;;
78004;SDS011;67209;51.698;-0.292;2023-01-31T01:40:21;7.22;;;2.78;;
78004;SDS011;67209;51.698;-0.292;2023-01-31T01:42:47;7.10;;;2.83;;
78004;SDS011;67209;51.698;-0.292;2023-01-31T01:45:13;7.60;;;3.08;;
78004;SDS011;67209;51.698;-0.292;2023-01-31T01:52:41;6.20;;;2.10;;
78004;SDS011;67209;51.698;-0.292;2023-01-31T01:55:20;7.72;;;1.95;;
78004;SDS011;67209;51.698;-0.292;2023-01-31T01:57:48;8.82;;;2.40;;
78004;SDS011;67209;51.698;-0.292;2023-01-31T02:00:24;11.20;;;2.38;;
78004;SDS011;67209;51.698;-0.292;2023-01-31T02:02:55;8.60;;;2.10;;
78004;SDS011;67209;51.698;-0.292;2023-01-31T02:05:23;9.13;;;2.33;;
78004;SDS011;67209;51.698;-0.292;2023-01-31T02:07:50;7.70;;;1.88;;
78004;SDS011;67209;51.698;-0.292;2023-01-31T02:10:22;8.07;;;2.20;;
78004;SDS011;67209;51.698;-0.292;2023-01-31T02:12:48;6.03;;;2.20;;
78004;SDS011;67209;51.698;-0.292;2023-01-31T02:15:15;5.80;;;1.90;;
78004;SDS011;67209;51.698;-0.292;2023-01-31T02:17:41;8.27;;;1.95;;
78004;SDS011;67209;51.698;-0.292;2023-01-31T02:22:42;10.20;;;2.92;;
78004;SDS011;67209;51.698;-0.292;2023-01-31T02:33:11;6.05;;;2.28;;
78004;SDS011;67209;51.698;-0.292;2023-01-31T02:35:45;7.50;;;2.08;;
78004;SDS011;67209;51.698;-0.292;2023-01-31T02:46:06;8.05;;;2.50;;
78004;SDS011;67209;51.698;-0.292;2023-01-31T02:53:30;6.65;;;1.80;;
78004;SDS011;67209;51.698;-0.292;2023-01-31T02:56:02;5.78;;;2.38;;
78004;SDS011;67209;51.698;-0.292;2023-01-31T02:58:46;5.75;;;1.92;;
78004;SDS011;67209;51.698;-0.292;2023-01-31T03:01:14;7.15;;;2.45;;
78004;SDS011;67209;51.698;-0.292;2023-01-31T03:03:42;12.07;;;2.17;;
78004;SDS011;67209;51.698;-0.292;2023-01-31T03:08:50;6.35;;;1.52;;
78004;SDS011;67209;51.698;-0.292;2023-01-31T03:11:17;8.77;;;1.83;;
78004;SDS011;67209;51.698;-0.292;2023-01-31T03:16:31;15.02;;;1.98;;
78004;SDS011;67209;51.698;-0.292;2023-01-31T03:19:20;7.53;;;2.03;;
78004;SDS011;67209;51.698;-0.292;2023-01-31T03:21:54;7.13;;;1.85;;
78004;SDS011;67209;51.698;-0.292;2023-01-31T03:24:22;6.88;;;0.85;;
78004;SDS011;67209;51.698;-0.292;2023-01-31T03:26:50;6.68;;;2.00;;
78004;SDS011;67209;51.698;-0.292;2023-01-31T03:29:17;6.15;;;1.88;;
78004;SDS011;67209;51.698;-0.292;2023-01-31T03:31:47;11.20;;;2.22;;
78004;SDS011;67209;51.698;-0.292;2023-01-31T03:34:17;7.22;;;1.95;;
78004;SDS011;67209;51.698;-0.292;2023-01-31T03:39:34;6.57;;;1.27;;
78004;SDS011;67209;51.698;-0.292;2023-01-31T03:42:06;7.47;;;1.80;;
78004;SDS011;67209;51.698;-0.292;2023-01-31T03:44:53;6.57;;;1.80;;
78004;SDS011;67209;51.698;-0.292;2023-01-31T03:49:50;10.60;;;2.22;;
78004;SDS011;67209;51.698;-0.292;2023-01-31T03:52:18;8.60;;;2.30;;
78004;SDS011;67209;51.698;-0.292;2023-01-31T03:54:49;9.95;;;1.83;;
78004;SDS011;67209;51.698;-0.292;2023-01-31T03:57:20;10.15;;;1.85;;
78004;SDS011;67209;51.698;-0.292;2023-01-31T03:59:48;7.28;;;2.13;;
78004;SDS011;67209;51.698;-0.292;2023-01-31T04:02:18;4.97;;;1.30;;
78004;SDS011;67209;51.698;-0.292;2023-01-31T04:04:47;8.68;;;1.90;;
78004;SDS011;67209;51.698;-0.292;2023-01-31T04:07:15;7.88;;;2.33;;
78004;SDS011;67209;51.698;-0.292;2023-01-31T04:09:42;9.18;;;2.00;;
78004;SDS011;67209;51.698;-0.292;2023-01-31T04:12:08;4.90;;;1.45;;
78004;SDS011;67209;51.698;-0.292;2023-01-31T04:14:36;6.28;;;1.52;;
78004;SDS011;67209;51.698;-0.292;2023-01-31T04:17:02;10.13;;;1.80;;
78004;SDS011;67209;51.698;-0.292;2023-01-31T04:19:28;7.38;;;1.80;;
78004;SDS011;67209;51.698;-0.292;2023-01-31T04:21:54;8.63;;;1.40;;
78004;SDS011;67209;51.698;-0.292;2023-01-31T04:24:20;7.90;;;1.23;;
78004;SDS011;67209;51.698;-0.292;2023-01-31T04:26:46;6.00;;;1.70;;
78004;SDS011;67209;51.698;-0.292;2023-01-31T04:29:12;3.85;;;1.58;;
78004;SDS011;67209;51.698;-0.292;2023-01-31T04:31:39;6.30;;;1.40;;
78004;SDS011;67209;51.698;-0.292;2023-01-31T04:34:05;8.32;;;1.42;;
78004;SDS011;67209;51.698;-0.292;2023-01-31T04:36:31;7.55;;;1.50;;
78004;SDS011;67209;51.698;-0.292;2023-01-31T04:38:57;4.28;;;1.17;;
78004;SDS011;67209;51.698;-0.292;2023-01-31T04:41:25;10.00;;;2.17;;
78004;SDS011;67209;51.698;-0.292;2023-01-31T04:43:51;5.18;;;1.63;;
78004;SDS011;67209;51.698;-0.292;2023-01-31T04:46:17;6.13;;;1.23;;
78004;SDS011;67209;51.698;-0.292;2023-01-31T04:48:43;5.47;;;1.38;;
78004;SDS011;67209;51.698;-0.292;2023-01-31T04:51:09;5.57;;;1.38;;
78004;SDS011;67209;51.698;-0.292;2023-01-31T04:53:35;6.22;;;1.20;;
78004;SDS011;67209;51.698;-0.292;2023-01-31T04:56:02;6.60;;;1.40;;
78004;SDS011;67209;51.698;-0.292;2023-01-31T04:58:28;11.63;;;1.98;;
78004;SDS011;67209;51.698;-0.292;2023-01-31T05:00:54;5.70;;;1.70;;
78004;SDS011;67209;51.698;-0.292;2023-01-31T05:03:20;11.88;;;1.73;;
78004;SDS011;67209;51.698;-0.292;2023-01-31T05:05:47;8.50;;;1.42;;
78004;SDS011;67209;51.698;-0.292;2023-01-31T05:08:13;6.78;;;1.63;;
78004;SDS011;67209;51.698;-0.292;2023-01-31T05:10:39;6.95;;;1.08;;
78004;SDS011;67209;51.698;-0.292;2023-01-31T05:13:06;4.05;;;1.35;;
78004;SDS011;67209;51.698;-0.292;2023-01-31T05:15:33;8.27;;;1.05;;
78004;SDS011;67209;51.698;-0.292;2023-01-31T05:17:59;9.70;;;1.08;;
78004;SDS011;67209;51.698;-0.292;2023-01-31T05:20:31;4.65;;;1.20;;
78004;SDS011;67209;51.698;-0.292;2023-01-31T05:23:00;5.10;;;1.75;;
78004;SDS011;67209;51.698;-0.292;2023-01-31T05:25:26;9.13;;;1.55;;
78004;SDS011;67209;51.698;-0.292;2023-01-31T05:27:52;6.10;;;1.45;;
78004;SDS011;67209;51.698;-0.292;2023-01-31T05:30:18;5.63;;;1.15;;
78004;SDS011;67209;51.698;-0.292;2023-01-31T05:32:46;8.88;;;2.53;;
78004;SDS011;67209;51.698;-0.292;2023-01-31T05:35:13;6.65;;;1.30;;
78004;SDS011;67209;51.698;-0.292;2023-01-31T05:37:40;13.10;;;1.55;;
78004;SDS011;67209;51.698;-0.292;2023-01-31T05:40:13;8.43;;;0.90;;
78004;SDS011;67209;51.698;-0.292;2023-01-31T05:42:39;7.57;;;1.10;;
78004;SDS011;67209;51.698;-0.292;2023-01-31T05:45:06;11.75;;;2.17;;
78004;SDS011;67209;51.698;-0.292;2023-01-31T05:47:32;6.40;;;1.50;;
78004;SDS011;67209;51.698;-0.292;2023-01-31T05:49:58;11.00;;;1.40;;
78004;SDS011;67209;51.698;-0.292;2023-01-31T05:52:24;6.82;;;1.42;;
78004;SDS011;67209;51.698;-0.292;2023-01-31T05:54:50;5.05;;;1.48;;
78004;SDS011;67209;51.698;-0.292;2023-01-31T05:57:16;10.23;;;2.38;;
78004;SDS011;67209;51.698;-0.292;2023-01-31T05:59:43;6.22;;;1.83;;
78004;SDS011;67209;51.698;-0.292;2023-01-31T06:02:09;6.95;;;1.48;;
78004;SDS011;67209;51.698;-0.292;2023-01-31T06:04:36;6.10;;;1.48;;
78004;SDS011;67209;51.698;-0.292;2023-01-31T06:07:02;5.10;;;1.73;;
78004;SDS011;67209;51.698;-0.292;2023-01-31T06:09:28;6.50;;;1.77;;
78004;SDS011;67209;51.698;-0.292;2023-01-31T06:11:54;7.68;;;1.42;;
78004;SDS011;67209;51.698;-0.292;2023-01-31T06:14:20;9.52;;;1.70;;
78004;SDS011;67209;51.698;-0.292;2023-01-31T06:16:46;3.65;;;1.35;;
78004;SDS011;67209;51.698;-0.292;2023-01-31T06:19:12;9.77;;;1.60;;
78004;SDS011;67209;51.698;-0.292;2023-01-31T06:21:38;7.85;;;1.42;;
78004;SDS011;67209;51.698;-0.292;2023-01-31T06:24:04;7.43;;;1.20;;
78004;SDS011;67209;51.698;-0.292;2023-01-31T06:26:30;8.13;;;1.92;;
78004;SDS011;67209;51.698;-0.292;2023-01-31T06:28:57;6.97;;;1.45;;
78004;SDS011;67209;51.698;-0.292;2023-01-31T06:31:23;5.70;;;1.40;;
78004;SDS011;67209;51.698;-0.292;2023-01-31T06:33:50;11.25;;;1.85;;
78004;SDS011;67209;51.698;-0.292;2023-01-31T06:36:16;6.30;;;1.27;;
78004;SDS011;67209;51.698;-0.292;2023-01-31T06:38:42;9.85;;;1.85;;
78004;SDS011;67209;51.698;-0.292;2023-01-31T06:41:08;10.10;;;2.17;;
78004;SDS011;67209;51.698;-0.292;2023-01-31T06:43:34;8.63;;;2.03;;
78004;SDS011;67209;51.698;-0.292;2023-01-31T06:46:00;9.73;;;1.98;;
78004;SDS011;67209;51.698;-0.292;2023-01-31T06:48:27;10.68;;;2.20;;
78004;SDS011;67209;51.698;-0.292;2023-01-31T06:50:53;10.95;;;1.60;;
78004;SDS011;67209;51.698;-0.292;2023-01-31T06:53:20;5.45;;;1.40;;
78004;SDS011;67209;51.698;-0.292;2023-01-31T06:55:46;6.15;;;1.58;;
78004;SDS011;67209;51.698;-0.292;2023-01-31T06:58:12;7.57;;;1.77;;
78004;SDS011;67209;51.698;-0.292;2023-01-31T07:00:38;9.38;;;2.08;;
78004;SDS011;67209;51.698;-0.292;2023-01-31T07:03:04;10.90;;;1.90;;
78004;SDS011;67209;51.698;-0.292;2023-01-31T07:05:30;10.30;;;1.80;;
78004;SDS011;67209;51.698;-0.292;2023-01-31T07:07:56;12.73;;;2.17;;
78004;SDS011;67209;51.698;-0.292;2023-01-31T07:10:22;8.02;;;1.52;;
78004;SDS011;67209;51.698;-0.292;2023-01-31T07:12:49;18.02;;;2.47;;
78004;SDS011;67209;51.698;-0.292;2023-01-31T07:15:15;12.77;;;2.20;;
78004;SDS011;67209;51.698;-0.292;2023-01-31T07:17:41;5.95;;;2.05;;
78004;SDS011;67209;51.698;-0.292;2023-01-31T07:20:08;44.47;;;3.47;;
78004;SDS011;67209;51.698;-0.292;2023-01-31T07:22:34;9.90;;;2.15;;
78004;SDS011;67209;51.698;-0.292;2023-01-31T07:25:00;8.98;;;1.23;;
78004;SDS011;67209;51.698;-0.292;2023-01-31T07:27:26;12.70;;;1.95;;
78004;SDS011;67209;51.698;-0.292;2023-01-31T07:29:52;109.20;;;8.15;;
78004;SDS011;67209;51.698;-0.292;2023-01-31T07:32:18;9.52;;;1.50;;
78004;SDS011;67209;51.698;-0.292;2023-01-31T07:34:44;26.48;;;2.70;;
78004;SDS011;67209;51.698;-0.292;2023-01-31T07:37:10;6.95;;;1.50;;
78004;SDS011;67209;51.698;-0.292;2023-01-31T07:39:36;7.80;;;1.88;;
78004;SDS011;67209;51.698;-0.292;2023-01-31T07:42:02;6.00;;;1.65;;
78004;SDS011;67209;51.698;-0.292;2023-01-31T07:44:28;12.02;;;1.80;;
78004;SDS011;67209;51.698;-0.292;2023-01-31T07:46:54;13.43;;;1.73;;
78004;SDS011;67209;51.698;-0.292;2023-01-31T07:49:20;8.90;;;1.75;;
78004;SDS011;67209;51.698;-0.292;2023-01-31T07:51:47;8.35;;;1.45;;
78004;SDS011;67209;51.698;-0.292;2023-01-31T07:54:13;8.10;;;1.70;;
78004;SDS011;67209;51.698;-0.292;2023-01-31T07:56:39;10.20;;;2.05;;
78004;SDS011;67209;51.698;-0.292;2023-01-31T07:59:05;7.40;;;1.65;;
78004;SDS011;67209;51.698;-0.292;2023-01-31T08:01:31;6.53;;;1.67;;
78004;SDS011;67209;51.698;-0.292;2023-01-31T08:04:16;20.95;;;3.03;;
78004;SDS011;67209;51.698;-0.292;2023-01-31T08:06:43;6.00;;;1.40;;
78004;SDS011;67209;51.698;-0.292;2023-01-31T08:09:09;5.47;;;1.40;;
78004;SDS011;67209;51.698;-0.292;2023-01-31T08:11:35;5.72;;;1.20;;
78004;SDS011;67209;51.698;-0.292;2023-01-31T08:14:01;9.27;;;2.08;;
78004;SDS011;67209;51.698;-0.292;2023-01-31T08:16:27;28.80;;;2.95;;
78004;SDS011;67209;51.698;-0.292;2023-01-31T08:18:55;6.28;;;1.45;;
78004;SDS011;67209;51.698;-0.292;2023-01-31T08:21:21;8.32;;;2.20;;
78004;SDS011;67209;51.698;-0.292;2023-01-31T08:23:48;7.50;;;1.98;;
78004;SDS011;67209;51.698;-0.292;2023-01-31T08:26:18;10.50;;;2.38;;
78004;SDS011;67209;51.698;-0.292;2023-01-31T08:28:46;65.38;;;6.25;;
78004;SDS011;67209;51.698;-0.292;2023-01-31T08:31:22;7.88;;;1.50;;
78004;SDS011;67209;51.698;-0.292;2023-01-31T08:33:48;10.02;;;1.77;;
78004;SDS011;67209;51.698;-0.292;2023-01-31T08:36:23;7.88;;;1.63;;
78004;SDS011;67209;51.698;-0.292;2023-01-31T08:38:50;7.45;;;1.80;;
78004;SDS011;67209;51.698;-0.292;2023-01-31T08:41:17;10.63;;;1.85;;
78004;SDS011;67209;51.698;-0.292;2023-01-31T08:43:43;5.72;;;1.80;;
78004;SDS011;67209;51.698;-0.292;2023-01-31T08:46:09;12.95;;;2.13;;
78004;SDS011;67209;51.698;-0.292;2023-01-31T08:48:36;9.35;;;1.83;;
78004;SDS011;67209;51.698;-0.292;2023-01-31T08:51:06;8.32;;;2.38;;
78004;SDS011;67209;51.698;-0.292;2023-01-31T08:53:32;5.93;;;1.70;;
78004;SDS011;67209;51.698;-0.292;2023-01-31T08:55:59;7.60;;;1.90;;
78004;SDS011;67209;51.698;-0.292;2023-01-31T08:58:26;8.05;;;1.92;;
78004;SDS011;67209;51.698;-0.292;2023-01-31T09:00:52;11.18;;;1.65;;
78004;SDS011;67209;51.698;-0.292;2023-01-31T09:03:18;8.88;;;1.65;;
78004;SDS011;67209;51.698;-0.292;2023-01-31T09:05:44;8.60;;;1.30;;
78004;SDS011;67209;51.698;-0.292;2023-01-31T09:08:10;7.97;;;1.98;;
78004;SDS011;67209;51.698;-0.292;2023-01-31T09:10:36;8.27;;;1.58;;
78004;SDS011;67209;51.698;-0.292;2023-01-31T09:13:02;9.07;;;1.90;;
78004;SDS011;67209;51.698;-0.292;2023-01-31T09:15:28;13.70;;;2.03;;
78004;SDS011;67209;51.698;-0.292;2023-01-31T09:17:54;6.75;;;2.55;;
78004;SDS011;67209;51.698;-0.292;2023-01-31T09:20:20;8.25;;;2.00;;
78004;SDS011;67209;51.698;-0.292;2023-01-31T09:22:46;12.20;;;2.40;;
78004;SDS011;67209;51.698;-0.292;2023-01-31T09:25:12;14.38;;;2.15;;
78004;SDS011;67209;51.698;-0.292;2023-01-31T09:27:38;14.65;;;3.03;;
78004;SDS011;67209;51.698;-0.292;2023-01-31T09:30:05;7.30;;;1.88;;
78004;SDS011;67209;51.698;-0.292;2023-01-31T09:32:31;12.63;;;2.03;;
78004;SDS011;67209;51.698;-0.292;2023-01-31T09:34:57;8.77;;;2.15;;
78004;SDS011;67209;51.698;-0.292;2023-01-31T09:37:23;10.57;;;1.88;;
78004;SDS011;67209;51.698;-0.292;2023-01-31T09:39:49;12.85;;;2.67;;
78004;SDS011;67209;51.698;-0.292;2023-01-31T09:44:55;7.28;;;1.90;;
78004;SDS011;67209;51.698;-0.292;2023-01-31T09:47:27;12.63;;;2.30;;
78004;SDS011;67209;51.698;-0.292;2023-01-31T09:50:00;13.50;;;2.03;;
78004;SDS011;67209;51.698;-0.292;2023-01-31T09:52:28;11.43;;;1.92;;
78004;SDS011;67209;51.698;-0.292;2023-01-31T09:54:56;9.73;;;2.10;;
78004;SDS011;67209;51.698;-0.292;2023-01-31T10:02:33;10.70;;;1.92;;
78004;SDS011;67209;51.698;-0.292;2023-01-31T10:07:37;8.27;;;1.83;;
78004;SDS011;67209;51.698;-0.292;2023-01-31T10:10:12;20.13;;;2.45;;
78004;SDS011;67209;51.698;-0.292;2023-01-31T10:12:42;8.63;;;1.92;;
78004;SDS011;67209;51.698;-0.292;2023-01-31T10:17:53;8.93;;;1.77;;
78004;SDS011;67209;51.698;-0.292;2023-01-31T10:22:53;9.68;;;2.10;;
78004;SDS011;67209;51.698;-0.292;2023-01-31T10:28:19;11.43;;;2.25;;
78004;SDS011;67209;51.698;-0.292;2023-01-31T10:30:57;13.18;;;2.78;;
78004;SDS011;67209;51.698;-0.292;2023-01-31T10:36:13;11.63;;;2.45;;
78004;SDS011;67209;51.698;-0.292;2023-01-31T10:39:03;6.70;;;2.10;;
78004;SDS011;67209;51.698;-0.292;2023-01-31T10:41:44;11.50;;;2.50;;
78004;SDS011;67209;51.698;-0.292;2023-01-31T10:44:14;10.50;;;2.25;;
78004;SDS011;67209;51.698;-0.292;2023-01-31T10:46:42;7.30;;;2.40;;
78004;SDS011;67209;51.698;-0.292;2023-01-31T10:49:09;5.07;;;2.20;;
78004;SDS011;67209;51.698;-0.292;2023-01-31T10:51:49;7.45;;;2.30;;
78004;SDS011;67209;51.698;-0.292;2023-01-31T10:54:30;5.55;;;2.00;;
78004;SDS011;67209;51.698;-0.292;2023-01-31T10:56:59;8.75;;;1.90;;
78004;SDS011;67209;51.698;-0.292;2023-01-31T10:59:32;7.30;;;2.40;;
78004;SDS011;67209;51.698;-0.292;2023-01-31T11:02:00;9.68;;;2.22;;
78004;SDS011;67209;51.698;-0.292;2023-01-31T11:04:28;8.75;;;2.22;;
78004;SDS011;67209;51.698;-0.292;2023-01-31T11:06:56;4.65;;;1.70;;
78004;SDS011;67209;51.698;-0.292;2023-01-31T11:09:22;5.40;;;2.00;;
78004;SDS011;67209;51.698;-0.292;2023-01-31T11:11:59;8.57;;;2.15;;
78004;SDS011;67209;51.698;-0.292;2023-01-31T11:14:25;7.35;;;2.25;;
78004;SDS011;67209;51.698;-0.292;2023-01-31T11:19:33;5.32;;;1.77;;
78004;SDS011;67209;51.698;-0.292;2023-01-31T11:22:00;8.20;;;2.63;;
78004;SDS011;67209;51.698;-0.292;2023-01-31T11:24:27;7.63;;;1.95;;
78004;SDS011;67209;51.698;-0.292;2023-01-31T11:26:58;7.78;;;1.88;;
78004;SDS011;67209;51.698;-0.292;2023-01-31T11:29:43;5.00;;;1.23;;
78004;SDS011;67209;51.698;-0.292;2023-01-31T11:32:17;2.05;;;0.73;;
78004;SDS011;67209;51.698;-0.292;2023-01-31T11:34:54;2.38;;;1.27;;
78004;SDS011;67209;51.698;-0.292;2023-01-31T11:37:20;5.05;;;1.40;;
78004;SDS011;67209;51.698;-0.292;2023-01-31T11:39:56;3.22;;;1.30;;
78004;SDS011;67209;51.698;-0.292;2023-01-31T11:42:23;2.83;;;1.05;;
78004;SDS011;67209;51.698;-0.292;2023-01-31T11:45:02;3.80;;;1.27;;
78004;SDS011;67209;51.698;-0.292;2023-01-31T11:47:36;2.75;;;1.08;;
78004;SDS011;67209;51.698;-0.292;2023-01-31T11:50:03;1.83;;;0.80;;
78004;SDS011;67209;51.698;-0.292;2023-01-31T11:52:30;4.28;;;1.00;;
78004;SDS011;67209;51.698;-0.292;2023-01-31T11:55:00;1.55;;;0.80;;
78004;SDS011;67209;51.698;-0.292;2023-01-31T11:57:30;1.48;;;0.80;;
78004;SDS011;67209;51.698;-0.292;2023-01-31T11:59:57;2.05;;;0.73;;
78004;SDS011;67209;51.698;-0.292;2023-01-31T12:02:39;2.75;;;0.93;;
78004;SDS011;67209;51.698;-0.292;2023-01-31T12:05:07;1.35;;;0.70;;
78004;SDS011;67209;51.698;-0.292;2023-01-31T12:07:44;1.88;;;0.65;;
78004;SDS011;67209;51.698;-0.292;2023-01-31T12:12:57;1.05;;;0.70;;
78004;SDS011;67209;51.698;-0.292;2023-01-31T12:15:23;2.58;;;0.77;;
78004;SDS011;67209;51.698;-0.292;2023-01-31T12:17:50;1.55;;;0.80;;
78004;SDS011;67209;51.698;-0.292;2023-01-31T12:20:34;1.42;;;0.60;;
78004;SDS011;67209;51.698;-0.292;2023-01-31T12:23:10;1.30;;;0.90;;
78004;SDS011;67209;51.698;-0.292;2023-01-31T12:28:11;2.42;;;0.60;;
78004;SDS011;67209;51.698;-0.292;2023-01-31T12:31:03;2.63;;;0.90;;
78004;SDS011;67209;51.698;-0.292;2023-01-31T12:39:32;2.28;;;0.43;;
78004;SDS011;67209;51.698;-0.292;2023-01-31T12:41:32;1.98;;;0.68;;
78004;SDS011;67209;51.698;-0.292;2023-01-31T12:51:36;1.50;;;1.00;;
78004;SDS011;67209;51.698;-0.292;2023-01-31T12:54:26;2.47;;;1.02;;
78004;SDS011;67209;51.698;-0.292;2023-01-31T12:59:38;2.25;;;0.73;;
78004;SDS011;67209;51.698;-0.292;2023-01-31T13:04:51;2.30;;;0.75;;
78004;SDS011;67209;51.698;-0.292;2023-01-31T13:07:40;2.00;;;0.70;;
78004;SDS011;67209;51.698;-0.292;2023-01-31T13:13:10;3.97;;;0.75;;
78004;SDS011;67209;51.698;-0.292;2023-01-31T13:15:43;2.25;;;0.80;;
78004;SDS011;67209;51.698;-0.292;2023-01-31T13:18:11;1.90;;;0.75;;
78004;SDS011;67209;51.698;-0.292;2023-01-31T13:20:39;2.17;;;0.70;;
78004;SDS011;67209;51.698;-0.292;2023-01-31T13:23:09;3.70;;;0.73;;
78004;SDS011;67209;51.698;-0.292;2023-01-31T13:25:48;2.15;;;0.70;;
78004;SDS011;67209;51.698;-0.292;2023-01-31T13:28:24;2.72;;;0.90;;
78004;SDS011;67209;51.698;-0.292;2023-01-31T13:30:52;3.58;;;0.55;;
78004;SDS011;67209;51.698;-0.292;2023-01-31T13:33:25;5.05;;;0.75;;
78004;SDS011;67209;51.698;-0.292;2023-01-31T13:36:37;2.40;;;0.52;;
78004;SDS011;67209;51.698;-0.292;2023-01-31T13:38:43;2.60;;;0.85;;
78004;SDS011;67209;51.698;-0.292;2023-01-31T13:41:12;3.00;;;0.65;;
78004;SDS011;67209;51.698;-0.292;2023-01-31T13:43:41;4.03;;;0.85;;
78004;SDS011;67209;51.698;-0.292;2023-01-31T13:46:08;2.83;;;0.77;;
78004;SDS011;67209;51.698;-0.292;2023-01-31T13:48:39;4.28;;;0.80;;
78004;SDS011;67209;51.698;-0.292;2023-01-31T13:51:17;5.28;;;1.13;;
78004;SDS011;67209;51.698;-0.292;2023-01-31T13:53:54;3.17;;;1.00;;
78004;SDS011;67209;51.698;-0.292;2023-01-31T13:56:23;4.82;;;0.85;;
78004;SDS011;67209;51.698;-0.292;2023-01-31T13:58:50;7.28;;;1.42;;
78004;SDS011;67209;51.698;-0.292;2023-01-31T14:01:23;10.27;;;1.90;;
78004;SDS011;67209;51.698;-0.292;2023-01-31T14:07:24;9.00;;;1.75;;
78004;SDS011;67209;51.698;-0.292;2023-01-31T14:12:00;6.00;;;1.40;;
78004;SDS011;67209;51.698;-0.292;2023-01-31T14:27:21;9.52;;;1.33;;
78004;SDS011;67209;51.698;-0.292;2023-01-31T14:29:50;7.20;;;1.40;;
78004;SDS011;67209;51.698;-0.292;2023-01-31T14:40:16;5.28;;;2.63;;
78004;SDS011;67209;51.698;-0.292;2023-01-31T14:50:34;7.40;;;1.45;;
78004;SDS011;67209;51.698;-0.292;2023-01-31T14:55:32;10.13;;;1.75;;
78004;SDS011;67209;51.698;-0.292;2023-01-31T14:58:02;8.93;;;2.17;;
78004;SDS011;67209;51.698;-0.292;2023-01-31T15:00:29;7.15;;;1.95;;
78004;SDS011;67209;51.698;-0.292;2023-01-31T15:16:02;6.75;;;1.30;;
78004;SDS011;67209;51.698;-0.292;2023-01-31T15:18:29;8.52;;;2.47;;
78004;SDS011;67209;51.698;-0.292;2023-01-31T15:20:56;10.43;;;1.75;;
78004;SDS011;67209;51.698;-0.292;2023-01-31T15:23:32;9.15;;;1.95;;
78004;SDS011;67209;51.698;-0.292;2023-01-31T15:28:28;6.85;;;1.27;;
78004;SDS011;67209;51.698;-0.292;2023-01-31T15:30:56;9.88;;;1.52;;
78004;SDS011;67209;51.698;-0.292;2023-01-31T15:33:34;8.20;;;1.73;;
78004;SDS011;67209;51.698;-0.292;2023-01-31T15:39:02;10.70;;;1.42;;
78004;SDS011;67209;51.698;-0.292;2023-01-31T15:41:39;10.80;;;1.40;;
78004;SDS011;67209;51.698;-0.292;2023-01-31T15:44:18;7.10;;;1.67;;
78004;SDS011;67209;51.698;-0.292;2023-01-31T15:46:48;8.93;;;1.30;;
78004;SDS011;67209;51.698;-0.292;2023-01-31T15:52:03;5.95;;;0.88;;
78004;SDS011;67209;51.698;-0.292;2023-01-31T15:54:29;7.97;;;1.58;;
78004;SDS011;67209;51.698;-0.292;2023-01-31T15:56:55;8.25;;;1.70;;
78004;SDS011;67209;51.698;-0.292;2023-01-31T15:59:22;10.60;;;2.28;;
78004;SDS011;67209;51.698;-0.292;2023-01-31T16:01:50;9.65;;;2.20;;
78004;SDS011;67209;51.698;-0.292;2023-01-31T16:04:18;8.07;;;1.30;;
78004;SDS011;67209;51.698;-0.292;2023-01-31T16:06:44;14.98;;;2.78;;
78004;SDS011;67209;51.698;-0.292;2023-01-31T16:09:21;9.30;;;1.50;;
78004;SDS011;67209;51.698;-0.292;2023-01-31T16:11:47;12.50;;;2.40;;
78004;SDS011;67209;51.698;-0.292;2023-01-31T16:14:14;8.18;;;1.70;;
78004;SDS011;67209;51.698;-0.292;2023-01-31T16:16:40;7.93;;;1.95;;
78004;SDS011;67209;51.698;-0.292;2023-01-31T16:19:06;14.40;;;2.17;;
78004;SDS011;67209;51.698;-0.292;2023-01-31T16:26:26;12.52;;;2.25;;
78004;SDS011;67209;51.698;-0.292;2023-01-31T16:28:54;11.15;;;1.50;;
78004;SDS011;67209;51.698;-0.292;2023-01-31T16:31:22;8.27;;;1.77;;
78004;SDS011;67209;51.698;-0.292;2023-01-31T16:33:58;9.02;;;2.25;;
78004;SDS011;67209;51.698;-0.292;2023-01-31T16:36:31;7.55;;;1.88;;
78004;SDS011;67209;51.698;-0.292;2023-01-31T16:38:59;8.48;;;1.75;;
78004;SDS011;67209;51.698;-0.292;2023-01-31T16:41:45;9.15;;;2.15;;
78004;SDS011;67209;51.698;-0.292;2023-01-31T16:44:13;8.10;;;1.65;;
78004;SDS011;67209;51.698;-0.292;2023-01-31T16:46:41;10.38;;;1.63;;
78004;SDS011;67209;51.698;-0.292;2023-01-31T16:49:23;7.38;;;1.83;;
78004;SDS011;67209;51.698;-0.292;2023-01-31T16:51:50;9.30;;;1.33;;
78004;SDS011;67209;51.698;-0.292;2023-01-31T16:54:18;12.48;;;1.88;;
78004;SDS011;67209;51.698;-0.292;2023-01-31T17:02:03;8.63;;;1.73;;
78004;SDS011;67209;51.698;-0.292;2023-01-31T17:04:38;9.98;;;1.80;;
78004;SDS011;67209;51.698;-0.292;2023-01-31T17:07:05;7.95;;;1.60;;
78004;SDS011;67209;51.698;-0.292;2023-01-31T17:09:32;8.77;;;1.67;;
78004;SDS011;67209;51.698;-0.292;2023-01-31T17:11:59;10.90;;;1.70;;
78004;SDS011;67209;51.698;-0.292;2023-01-31T17:14:25;5.68;;;1.48;;
78004;SDS011;67209;51.698;-0.292;2023-01-31T17:16:52;9.35;;;1.92;;